Time;durP1;ratioP1;P1;durP2;ratioP2;P2;SDS_P1;SDS_P2;PMS_P1;PMS_P2;Temp;Humidity;BMP_temperature;BMP_pressure;BME280_temperature;BME280_humidity;BME280_pressure;Samples;Min_cycle;Max_cycle;Signal;HPM_P1;HPM_P2
2022/04/28 00:00:54;;;;;;;3.05;1.90;;;4.40;99.90;;;;;;5028525;28;20049;-67
2022/04/28 00:03:22;;;;;;;1.70;1.60;;;4.30;99.90;;;;;;5027141;28;20132;-71
2022/04/28 00:05:49;;;;;;;4.40;1.70;;;4.40;99.90;;;;;;5026676;28;20140;-64
2022/04/28 00:08:16;;;;;;;4.50;1.65;;;4.40;99.90;;;;;;5008962;28;20371;-65
2022/04/28 00:10:43;;;;;;;2.80;1.60;;;4.40;99.90;;;;;;5025563;28;20616;-68
2022/04/28 00:13:12;;;;;;;1.95;1.33;;;4.40;99.90;;;;;;5021817;28;21006;-70
2022/04/28 00:15:40;;;;;;;2.80;2.22;;;4.40;99.90;;;;;;5027492;28;20138;-68
2022/04/28 00:18:07;;;;;;;2.90;1.30;;;4.40;99.90;;;;;;5024369;28;20126;-66
2022/04/28 00:20:34;;;;;;;1.63;1.20;;;4.40;99.90;;;;;;5030722;28;20177;-68
2022/04/28 00:23:02;;;;;;;3.03;1.45;;;4.40;99.90;;;;;;5027262;28;20056;-66
2022/04/28 00:25:29;;;;;;;1.92;1.45;;;4.40;99.90;;;;;;5025495;28;20069;-67
2022/04/28 00:27:55;;;;;;;8.10;3.28;;;4.40;99.90;;;;;;5024701;28;20049;-68
2022/04/28 00:30:23;;;;;;;1.35;1.15;;;4.40;99.90;;;;;;5008605;28;20150;-67
2022/04/28 00:32:50;;;;;;;1.92;1.73;;;4.50;99.90;;;;;;5026520;28;20132;-69
2022/04/28 00:35:17;;;;;;;2.17;1.67;;;4.50;99.90;;;;;;5026093;28;20156;-66
2022/04/28 00:37:44;;;;;;;4.40;1.35;;;4.50;99.90;;;;;;5041178;28;20167;-67
2022/04/28 00:40:11;;;;;;;2.05;1.73;;;4.40;99.90;;;;;;5024527;28;20176;-67
2022/04/28 00:42:39;;;;;;;2.97;1.15;;;4.50;99.90;;;;;;5025639;28;20882;-67
2022/04/28 00:45:06;;;;;;;2.45;1.48;;;4.40;99.90;;;;;;5030529;28;20060;-68
2022/04/28 00:53:11;;;;;;;1.60;1.23;;;4.40;99.90;;;;;;5025284;28;20091;-70
2022/04/28 00:55:40;;;;;;;1.35;1.25;;;4.40;99.90;;;;;;5041624;28;20049;-66
2022/04/28 00:58:10;;;;;;;1.00;1.00;;;4.40;99.90;;;;;;5020055;28;20425;-68
2022/04/28 01:00:40;;;;;;;3.20;1.30;;;4.40;99.90;;;;;;5005465;28;20049;-69
2022/04/28 01:03:10;;;;;;;4.78;1.90;;;4.40;99.90;;;;;;4999122;28;20155;-68
2022/04/28 01:05:38;;;;;;;7.35;1.80;;;4.40;99.90;;;;;;5030375;28;20096;-66
2022/04/28 01:08:06;;;;;;;2.25;1.45;;;4.40;99.90;;;;;;5017507;28;20134;-70
2022/04/28 01:10:35;;;;;;;3.10;2.08;;;4.40;99.90;;;;;;5006446;28;20140;-66
2022/04/28 01:13:03;;;;;;;3.72;1.50;;;4.40;99.90;;;;;;5008940;28;20154;-67
2022/04/28 01:15:40;;;;;;;2.28;1.90;;;4.40;99.90;;;;;;5038398;28;20482;-70
2022/04/28 01:18:07;;;;;;;2.80;2.45;;;4.40;99.90;;;;;;5015750;28;20103;-69
2022/04/28 01:20:35;;;;;;;1.63;1.20;;;4.40;99.90;;;;;;5008606;28;20077;-68
2022/04/28 01:23:04;;;;;;;2.20;1.50;;;4.40;99.90;;;;;;5008107;28;20132;-68
2022/04/28 01:25:31;;;;;;;8.93;2.22;;;4.40;99.90;;;;;;5009707;28;20052;-65
2022/04/28 01:27:59;;;;;;;1.67;1.55;;;4.30;99.90;;;;;;5041715;28;20057;-69
2022/04/28 01:30:26;;;;;;;5.25;2.00;;;4.40;99.90;;;;;;5018368;28;20875;-65
2022/04/28 01:32:57;;;;;;;6.07;1.80;;;4.40;99.90;;;;;;4984084;28;20294;-66
2022/04/28 01:35:25;;;;;;;1.92;1.00;;;4.30;99.90;;;;;;4981989;28;20734;-67
2022/04/28 01:37:52;;;;;;;1.67;1.45;;;4.30;99.90;;;;;;5003076;28;20610;-65
2022/04/28 01:40:20;;;;;;;2.15;1.77;;;4.30;99.90;;;;;;5020409;28;20046;-70
2022/04/28 01:42:48;;;;;;;1.83;1.60;;;4.40;99.90;;;;;;5004878;28;20136;-67
2022/04/28 01:45:17;;;;;;;4.10;2.42;;;4.30;99.90;;;;;;5020599;28;20038;-68
2022/04/28 01:48:03;;;;;;;3.00;1.27;;;4.30;99.90;;;;;;5000301;28;20084;-67
2022/04/28 01:54:57;;;;;;;2.38;1.30;;;4.30;99.90;;;;;;5015234;28;20068;-68
2022/04/28 01:56:32;;;;;;;6.63;1.75;;;4.40;99.90;;;;;;5019499;28;20060;-65
2022/04/28 01:59:22;;;;;;;2.33;1.50;;;4.30;99.90;;;;;;4999018;28;20053;-66
2022/04/28 02:02:15;;;;;;;1.13;1.02;;;4.40;99.90;;;;;;4988695;28;20041;-68
2022/04/28 02:04:42;;;;;;;4.13;1.52;;;4.40;99.90;;;;;;4996138;28;20041;-70
2022/04/28 02:07:11;;;;;;;2.70;1.70;;;4.40;99.90;;;;;;4986781;28;20045;-67
2022/04/28 02:09:38;;;;;;;2.55;1.20;;;4.40;99.90;;;;;;5020115;28;20054;-68
2022/04/28 02:12:07;;;;;;;1.55;1.30;;;4.40;99.90;;;;;;4988634;28;20051;-67
2022/04/28 02:14:43;;;;;;;6.75;1.90;;;4.40;99.90;;;;;;4989986;28;20041;-70
2022/04/28 02:17:40;;;;;;;2.28;1.20;;;4.40;99.90;;;;;;5004893;28;20156;-70
2022/04/28 02:20:09;;;;;;;1.02;0.93;;;4.40;99.90;;;;;;4999650;28;20049;-70
2022/04/28 02:22:38;;;;;;;0.88;0.82;;;4.40;99.90;;;;;;5019035;28;20064;-73
2022/04/28 02:25:08;;;;;;;2.15;1.35;;;4.40;99.90;;;;;;5019782;28;20394;-66
2022/04/28 02:27:35;;;;;;;6.07;1.25;;;4.40;99.90;;;;;;5019345;28;20414;-69
2022/04/28 02:30:04;;;;;;;2.45;1.50;;;4.40;99.90;;;;;;5003750;28;20042;-67
2022/04/28 02:33:08;;;;;;;2.67;1.10;;;4.40;99.90;;;;;;4982118;28;20575;-71
2022/04/28 02:35:20;;;;;;;5.63;1.70;;;4.40;99.90;;;;;;4985331;28;20777;-65
2022/04/28 02:37:47;;;;;;;1.58;1.27;;;4.40;99.90;;;;;;4986582;28;20259;-65
2022/04/28 02:40:16;;;;;;;3.08;1.33;;;4.40;99.90;;;;;;4972147;28;20050;-69
2022/04/28 02:42:43;;;;;;;4.22;1.02;;;4.40;99.90;;;;;;5018082;28;20052;-70
2022/04/28 02:45:10;;;;;;;5.85;1.33;;;4.40;99.90;;;;;;4989880;28;20050;-65
2022/04/28 02:47:42;;;;;;;2.15;1.27;;;4.40;99.90;;;;;;4987725;28;20123;-69
2022/04/28 02:50:12;;;;;;;1.83;1.58;;;4.40;99.90;;;;;;4988066;28;20041;-69
2022/04/28 02:52:42;;;;;;;2.90;1.23;;;4.40;99.90;;;;;;4985830;28;20045;-71
2022/04/28 02:55:09;;;;;;;4.95;1.50;;;4.40;99.90;;;;;;4999465;28;20059;-71
2022/04/28 02:57:36;;;;;;;1.75;1.33;;;4.40;99.90;;;;;;4987893;28;20742;-68
2022/04/28 03:00:05;;;;;;;3.55;1.45;;;4.40;99.90;;;;;;4985220;28;20065;-65
2022/04/28 03:02:40;;;;;;;4.30;1.65;;;4.40;99.90;;;;;;5011266;28;20228;-65
2022/04/28 03:05:08;;;;;;;1.98;1.08;;;4.40;99.90;;;;;;4990848;28;20053;-70
2022/04/28 03:10:52;;;;;;;3.55;1.40;;;4.40;99.90;;;;;;4988584;28;20052;-68
2022/04/28 03:13:26;;;;;;;2.75;1.50;;;4.40;99.90;;;;;;4987283;28;20058;-68
2022/04/28 03:15:55;;;;;;;6.57;1.88;;;4.40;99.90;;;;;;4988070;28;20060;-70
2022/04/28 03:18:41;;;;;;;1.98;1.40;;;4.40;99.90;;;;;;5004488;28;20061;-70
2022/04/28 03:21:09;;;;;;;3.97;1.88;;;4.40;99.90;;;;;;4988435;28;20461;-68
2022/04/28 03:23:37;;;;;;;1.50;1.40;;;4.40;99.90;;;;;;5004553;28;20138;-67
2022/04/28 03:26:04;;;;;;;5.13;1.83;;;4.40;99.90;;;;;;4995188;28;20056;-68
2022/04/28 03:28:38;;;;;;;2.58;1.40;;;4.30;99.90;;;;;;5006305;28;20152;-66
2022/04/28 03:31:06;;;;;;;3.67;2.08;;;4.30;99.90;;;;;;5031343;28;20220;-63
2022/04/28 03:34:01;;;;;;;1.95;1.65;;;4.40;99.90;;;;;;5049689;28;20934;-65
2022/04/28 03:39:13;;;;;;;3.15;1.80;;;4.30;99.90;;;;;;5015054;28;20217;-70
2022/04/28 03:41:40;;;;;;;3.75;1.60;;;4.30;99.90;;;;;;5017662;28;20132;-67
2022/04/28 03:44:09;;;;;;;3.67;1.80;;;4.30;99.90;;;;;;5007269;28;20424;-69
2022/04/28 03:46:37;;;;;;;3.05;1.90;;;4.30;99.90;;;;;;5032169;28;20059;-66
2022/04/28 03:49:05;;;;;;;5.07;1.90;;;4.40;99.90;;;;;;5017967;28;20383;-65
2022/04/28 03:51:32;;;;;;;5.63;1.90;;;4.40;99.90;;;;;;5031420;28;20140;-64
2022/04/28 03:54:02;;;;;;;3.33;1.52;;;4.40;99.90;;;;;;5016597;28;20050;-68
2022/04/28 03:56:33;;;;;;;4.28;2.13;;;4.50;99.90;;;;;;5013644;28;20386;-66
2022/04/28 03:59:06;;;;;;;2.95;1.98;;;4.50;99.90;;;;;;5047236;28;20045;-71
2022/04/28 04:01:52;;;;;;;4.03;1.50;;;4.40;99.90;;;;;;5043775;28;20182;-64
2022/04/28 04:04:19;;;;;;;4.55;1.67;;;4.40;99.90;;;;;;5009548;28;20049;-69
2022/04/28 04:06:54;;;;;;;2.22;1.77;;;4.50;99.90;;;;;;5021741;28;20534;-63
2022/04/28 04:09:42;;;;;;;2.42;2.22;;;4.50;99.90;;;;;;5024205;28;20052;-70
2022/04/28 04:12:20;;;;;;;2.75;1.70;;;4.50;99.90;;;;;;5015907;28;21373;-67
2022/04/28 04:15:06;;;;;;;2.67;1.42;;;4.60;99.90;;;;;;5021935;28;20072;-67
2022/04/28 04:17:53;;;;;;;1.98;1.77;;;4.60;99.90;;;;;;5035451;28;20045;-70
2022/04/28 04:20:22;;;;;;;8.63;2.08;;;4.60;99.90;;;;;;5017908;28;20049;-65
2022/04/28 04:22:49;;;;;;;11.65;2.58;;;4.60;99.90;;;;;;5015799;28;20049;-67
2022/04/28 04:25:16;;;;;;;3.28;1.63;;;4.70;99.90;;;;;;5008764;28;20171;-72
2022/04/28 04:27:47;;;;;;;2.38;2.08;;;4.70;99.90;;;;;;5025244;28;20687;-69
2022/04/28 04:33:21;;;;;;;2.47;1.65;;;4.70;99.90;;;;;;5045151;28;20118;-65
2022/04/28 04:35:48;;;;;;;4.65;2.70;;;4.80;99.90;;;;;;5010958;28;20048;-67
2022/04/28 04:38:15;;;;;;;4.03;2.00;;;4.80;99.90;;;;;;5012095;28;20053;-65
2022/04/28 04:40:48;;;;;;;4.85;2.33;;;4.80;99.90;;;;;;5013244;28;20178;-69
2022/04/28 04:43:15;;;;;;;2.00;1.83;;;4.80;99.90;;;;;;5011917;28;20061;-68
2022/04/28 04:45:43;;;;;;;2.60;2.05;;;4.90;99.90;;;;;;5011564;28;20956;-66
2022/04/28 04:48:10;;;;;;;9.32;2.40;;;4.90;99.90;;;;;;5026144;28;20041;-68
2022/04/28 04:50:42;;;;;;;2.25;1.88;;;5.00;99.90;;;;;;5007154;28;20122;-64
2022/04/28 04:53:35;;;;;;;3.00;1.45;;;5.00;99.90;;;;;;5025291;28;20053;-66
2022/04/28 04:56:04;;;;;;;2.63;1.17;;;5.00;99.90;;;;;;5029685;28;20148;-65
2022/04/28 04:58:30;;;;;;;2.08;1.58;;;5.00;99.90;;;;;;5031343;28;20056;-65
2022/04/28 05:00:57;;;;;;;2.80;1.67;;;5.10;99.90;;;;;;5034656;28;20840;-66
2022/04/28 05:03:25;;;;;;;2.85;2.55;;;5.10;99.90;;;;;;5035153;28;20620;-68
2022/04/28 05:05:55;;;;;;;5.45;1.85;;;5.20;99.90;;;;;;5029867;28;20048;-68
2022/04/28 05:08:30;;;;;;;4.65;2.25;;;5.20;99.90;;;;;;5020266;28;20044;-71
2022/04/28 05:11:00;;;;;;;4.40;1.80;;;5.20;99.90;;;;;;5043610;28;20049;-69
2022/04/28 05:13:27;;;;;;;4.00;2.22;;;5.30;99.90;;;;;;5036371;28;20364;-64
2022/04/28 05:15:56;;;;;;;2.05;1.88;;;5.20;99.90;;;;;;5010769;28;20134;-67
2022/04/28 05:18:46;;;;;;;5.45;1.60;;;5.30;99.90;;;;;;5010998;28;20057;-72
2022/04/28 05:21:25;;;;;;;2.28;1.83;;;5.30;99.90;;;;;;5032810;28;20061;-66
2022/04/28 05:24:18;;;;;;;2.33;2.13;;;5.30;99.90;;;;;;5037894;28;20053;-68
2022/04/28 05:27:04;;;;;;;2.75;2.38;;;5.20;99.90;;;;;;5037065;28;20071;-64
2022/04/28 05:29:49;;;;;;;3.47;2.67;;;5.30;99.90;;;;;;5038108;28;20044;-68
2022/04/28 05:32:37;;;;;;;2.55;2.10;;;5.30;99.90;;;;;;5029452;28;20045;-67
2022/04/28 05:35:27;;;;;;;3.78;2.28;;;5.40;99.90;;;;;;5019212;28;20052;-65
2022/04/28 05:37:55;;;;;;;4.07;1.92;;;5.40;99.90;;;;;;5020997;28;20061;-66
2022/04/28 05:40:22;;;;;;;6.97;2.20;;;5.40;99.90;;;;;;5010122;28;20183;-65
2022/04/28 05:45:42;;;;;;;;;;;5.40;99.90;;;;;;5031418;28;20431;-65
2022/04/28 05:48:18;;;;;;;5.32;4.25;;;5.40;99.90;;;;;;5026605;28;19925;-69
2022/04/28 05:50:58;;;;;;;5.53;3.60;;;5.40;99.90;;;;;;5048786;28;20049;-66
2022/04/28 05:53:25;;;;;;;2.90;1.83;;;5.30;99.90;;;;;;5051255;28;20040;-64
2022/04/28 05:56:02;;;;;;;4.93;1.73;;;5.30;99.90;;;;;;5050565;28;20049;-66
2022/04/28 05:58:48;;;;;;;2.35;1.50;;;5.20;99.90;;;;;;5013454;28;20070;-66
2022/04/28 06:01:34;;;;;;;3.30;2.10;;;5.30;99.90;;;;;;5024100;28;20106;-64
2022/04/28 06:04:06;;;;;;;3.65;2.92;;;5.30;99.90;;;;;;5037567;28;20175;-64
2022/04/28 06:06:39;;;;;;;4.93;2.13;;;5.30;99.90;;;;;;5014016;28;20793;-65
2022/04/28 06:09:15;;;;;;;6.78;3.45;;;5.40;99.90;;;;;;5019071;28;20045;-65
2022/04/28 06:11:43;;;;;;;3.75;1.50;;;5.50;99.90;;;;;;5020334;28;20854;-68
2022/04/28 06:14:10;;;;;;;3.42;2.20;;;5.70;99.90;;;;;;5051808;28;20062;-68
2022/04/28 06:17:13;;;;;;;2.17;1.52;;;5.80;99.90;;;;;;5008088;28;20049;-66
2022/04/28 06:19:40;;;;;;;3.08;1.25;;;5.90;99.90;;;;;;5016377;28;20040;-67
2022/04/28 06:22:47;;;;;;;1.88;1.40;;;6.00;99.90;;;;;;5032124;28;20503;-65
2022/04/28 06:25:14;;;;;;;3.85;1.70;;;6.10;99.90;;;;;;5019213;28;20135;-68
2022/04/28 06:27:45;;;;;;;2.15;1.52;;;6.10;99.90;;;;;;5021117;28;20093;-66
2022/04/28 06:30:13;;;;;;;4.72;1.58;;;6.10;99.90;;;;;;5050676;28;20045;-65
2022/04/28 06:32:41;;;;;;;4.32;2.13;;;6.20;99.90;;;;;;5051638;28;20044;-66
2022/04/28 06:35:25;;;;;;;4.18;1.48;;;6.20;99.90;;;;;;5048177;28;20101;-64
2022/04/28 06:37:53;;;;;;;1.50;1.27;;;6.20;99.90;;;;;;5020070;28;20057;-65
2022/04/28 06:40:20;;;;;;;3.97;1.92;;;6.10;99.90;;;;;;5017046;28;20052;-64
2022/04/28 06:42:52;;;;;;;1.48;1.38;;;6.00;99.90;;;;;;5020117;28;20800;-66
2022/04/28 06:45:23;;;;;;;2.63;1.20;;;6.00;99.90;;;;;;5032478;28;20061;-65
2022/04/28 06:48:21;;;;;;;3.58;1.30;;;5.90;99.90;;;;;;5030500;28;20040;-68
2022/04/28 06:51:09;;;;;;;5.28;1.75;;;6.00;99.90;;;;;;5028222;28;20045;-68
2022/04/28 06:53:54;;;;;;;1.73;1.33;;;6.10;99.90;;;;;;5030166;28;21041;-64
2022/04/28 06:56:22;;;;;;;5.95;1.50;;;6.10;99.90;;;;;;5044132;28;20128;-68
2022/04/28 06:59:06;;;;;;;4.70;2.63;;;6.20;99.90;;;;;;5022642;28;20069;-67
2022/04/28 07:01:39;;;;;;;3.88;1.67;;;6.40;99.90;;;;;;5007640;28;20388;-69
2022/04/28 07:04:10;;;;;;;4.30;1.88;;;6.30;99.90;;;;;;5040130;28;20041;-69
2022/04/28 07:06:38;;;;;;;1.45;1.30;;;6.30;99.90;;;;;;5041441;28;20136;-67
2022/04/28 07:09:05;;;;;;;1.58;1.30;;;6.40;99.90;;;;;;5043555;28;20160;-65
2022/04/28 07:11:32;;;;;;;2.83;1.17;;;6.30;99.90;;;;;;5044125;28;20045;-70
2022/04/28 07:14:18;;;;;;;3.65;1.70;;;6.30;99.90;;;;;;5044283;28;20049;-68
2022/04/28 07:17:08;;;;;;;1.77;1.47;;;6.20;99.90;;;;;;5027067;28;20045;-67
2022/04/28 07:19:50;;;;;;;5.15;1.58;;;6.20;99.90;;;;;;5010894;28;20074;-68
2022/04/28 07:22:18;;;;;;;8.18;2.13;;;6.10;99.90;;;;;;5008462;28;20329;-65
2022/04/28 07:24:45;;;;;;;4.78;1.70;;;6.10;99.90;;;;;;5029684;28;20112;-65
2022/04/28 07:27:13;;;;;;;1.65;1.48;;;6.20;99.90;;;;;;5029162;28;20049;-66
2022/04/28 07:29:41;;;;;;;6.30;2.10;;;6.20;99.90;;;;;;5013319;28;20037;-66
2022/04/28 07:32:13;;;;;;;3.28;2.03;;;6.20;99.90;;;;;;5012424;28;20057;-66
2022/04/28 07:35:05;;;;;;;2.47;1.98;;;6.20;99.90;;;;;;5027791;28;20052;-66
2022/04/28 07:37:51;;;;;;;2.17;1.88;;;6.20;99.90;;;;;;5026738;28;20219;-68
2022/04/28 07:40:34;;;;;;;3.78;2.70;;;6.20;99.90;;;;;;5025437;28;20049;-66
2022/04/28 07:43:06;;;;;;;3.10;2.05;;;6.20;99.90;;;;;;5012585;28;20053;-69
2022/04/28 07:45:33;;;;;;;2.00;1.77;;;6.20;99.90;;;;;;5013191;28;21039;-64
2022/04/28 07:48:07;;;;;;;3.08;2.00;;;6.20;99.90;;;;;;5011634;28;20137;-66
2022/04/28 07:50:34;;;;;;;2.50;2.30;;;6.10;99.90;;;;;;5026834;28;20452;-67
2022/04/28 07:53:17;;;;;;;4.22;2.22;;;6.10;99.90;;;;;;5026718;28;20676;-64
2022/04/28 07:55:44;;;;;;;6.22;2.05;;;6.20;99.90;;;;;;5040295;28;20091;-66
2022/04/28 07:58:11;;;;;;;4.03;1.92;;;6.20;99.90;;;;;;5010744;28;20079;-67
2022/04/28 08:01:00;;;;;;;3.35;1.42;;;6.20;99.90;;;;;;5027998;28;20141;-66
2022/04/28 08:03:27;;;;;;;4.50;2.88;;;6.20;99.90;;;;;;5013623;28;20049;-67
2022/04/28 08:05:55;;;;;;;5.38;1.90;;;6.30;99.90;;;;;;5043688;28;20053;-66
2022/04/28 08:08:23;;;;;;;3.15;1.80;;;6.30;99.90;;;;;;5010839;28;20081;-67
2022/04/28 08:10:50;;;;;;;2.40;1.88;;;6.30;99.90;;;;;;5009844;28;20053;-65
2022/04/28 08:13:19;;;;;;;2.88;1.55;;;6.30;99.90;;;;;;5013937;28;20033;-65
2022/04/28 08:16:11;;;;;;;3.03;2.20;;;6.30;99.90;;;;;;5027494;28;20046;-69
2022/04/28 08:18:43;;;;;;;4.45;2.05;;;6.30;99.90;;;;;;5013848;28;20048;-68
2022/04/28 08:21:21;;;;;;;3.60;2.38;;;6.40;99.90;;;;;;5011432;28;20099;-64
2022/04/28 08:23:49;;;;;;;2.03;1.67;;;6.50;99.90;;;;;;5012810;28;20570;-64
2022/04/28 08:26:18;;;;;;;2.60;1.80;;;6.50;99.90;;;;;;5041070;28;20147;-65
2022/04/28 08:28:46;;;;;;;5.78;2.38;;;6.60;99.90;;;;;;5045664;28;20402;-64
2022/04/28 08:31:13;;;;;;;4.88;2.40;;;6.70;99.90;;;;;;5012253;28;20124;-64
2022/04/28 08:33:47;;;;;;;2.60;1.95;;;6.80;99.90;;;;;;4997089;28;20072;-67
2022/04/28 08:36:14;;;;;;;3.22;2.10;;;6.80;99.90;;;;;;5017361;28;20051;-67
2022/04/28 08:38:43;;;;;;;4.63;3.05;;;6.80;99.90;;;;;;4991559;28;20128;-68
2022/04/28 08:41:13;;;;;;;2.35;1.73;;;6.70;99.90;;;;;;5009485;28;20077;-68
2022/04/28 08:44:07;;;;;;;4.72;2.28;;;6.90;99.90;;;;;;4981804;28;20053;-67
2022/04/28 08:46:52;;;;;;;4.05;1.90;;;7.00;99.90;;;;;;5008296;28;21125;-66
2022/04/28 08:49:29;;;;;;;3.47;2.87;;;7.00;99.90;;;;;;4991159;28;20747;-65
2022/04/28 08:52:16;;;;;;;4.72;2.00;;;7.00;99.90;;;;;;5005923;28;20357;-66
2022/04/28 08:54:46;;;;;;;3.35;2.30;;;7.10;99.90;;;;;;4989605;28;20045;-65
2022/04/28 08:57:14;;;;;;;7.30;2.28;;;6.90;99.90;;;;;;5007754;28;20570;-66
2022/04/28 08:59:41;;;;;;;3.15;1.90;;;6.80;99.90;;;;;;4992053;28;20044;-65
2022/04/28 09:02:11;;;;;;;5.15;2.53;;;6.90;99.90;;;;;;4998823;28;20437;-66
2022/04/28 09:04:41;;;;;;;6.28;2.40;;;6.80;99.90;;;;;;5001606;28;20045;-67
2022/04/28 09:07:35;;;;;;;3.00;1.65;;;6.60;99.90;;;;;;5003841;28;20099;-65
2022/04/28 09:10:35;;;;;;;6.22;2.65;;;6.70;99.90;;;;;;4984057;28;20061;-63
2022/04/28 09:16:13;;;;;;;4.32;2.38;;;6.80;99.90;;;;;;4982342;28;20082;-64
2022/04/28 09:18:40;;;;;;;3.22;1.92;;;6.80;99.90;;;;;;4992413;28;20075;-68
2022/04/28 09:21:07;;;;;;;2.80;2.05;;;7.00;99.90;;;;;;4987688;28;20049;-65
2022/04/28 09:23:36;;;;;;;6.57;2.65;;;7.10;99.90;;;;;;4994105;28;20069;-64
2022/04/28 09:26:03;;;;;;;16.52;2.60;;;7.30;99.90;;;;;;4996264;28;20089;-65
2022/04/28 09:28:30;;;;;;;5.65;2.30;;;7.30;99.90;;;;;;5008422;28;20138;-68
2022/04/28 09:30:58;;;;;;;3.50;2.38;;;7.30;99.90;;;;;;5012598;28;20139;-65
2022/04/28 09:34:14;;;;;;;4.60;1.90;;;7.30;99.90;;;;;;4949343;28;20051;-66
2022/04/28 09:37:05;;;;;;;4.47;3.05;;;7.40;99.90;;;;;;4919303;28;20050;-65
2022/04/28 09:42:33;;;;;;;4.63;1.95;;;7.40;99.90;;;;;;5014946;28;20060;-63
2022/04/28 09:45:08;;;;;;;2.85;1.80;;;7.50;99.90;;;;;;5043302;28;20059;-68
2022/04/28 09:47:38;;;;;;;4.78;3.88;;;7.40;99.90;;;;;;5009653;28;20159;-65
2022/04/28 09:50:26;;;;;;;8.23;4.95;;;7.60;99.90;;;;;;5006193;28;20134;-72
2022/04/28 09:53:20;;;;;;;3.05;2.13;;;7.50;99.90;;;;;;5024437;28;20057;-68
2022/04/28 09:56:03;;;;;;;2.40;2.00;;;7.80;99.90;;;;;;5039690;28;20049;-67
2022/04/28 09:58:46;;;;;;;7.13;3.33;;;7.90;99.90;;;;;;5025436;28;20052;-63
2022/04/28 10:01:14;;;;;;;4.55;1.77;;;8.30;99.90;;;;;;5040703;28;20190;-67
2022/04/28 10:03:43;;;;;;;9.05;1.98;;;8.50;99.90;;;;;;5039904;28;20378;-67
2022/04/28 10:06:19;;;;;;;3.33;1.70;;;8.60;99.90;;;;;;5036847;28;20133;-68
2022/04/28 10:08:52;;;;;;;4.20;2.15;;;8.90;99.90;;;;;;5026454;28;20045;-65
2022/04/28 10:11:23;;;;;;;3.10;1.80;;;9.00;99.90;;;;;;5006796;28;20056;-68
2022/04/28 10:13:54;;;;;;;6.13;1.73;;;9.10;99.90;;;;;;5025713;28;20130;-67
2022/04/28 10:16:23;;;;;;;3.65;1.73;;;9.10;99.90;;;;;;5004869;28;20045;-69
2022/04/28 10:19:05;;;;;;;5.47;2.78;;;9.20;99.90;;;;;;5008711;28;20233;-69
2022/04/28 10:21:56;;;;;;;3.20;2.00;;;9.20;99.90;;;;;;5007411;28;20045;-67
2022/04/28 10:33:10;;;;;;;3.55;2.25;;;9.00;99.90;;;;;;5024286;28;21054;-68
2022/04/28 10:35:40;;;;;;;4.80;2.45;;;9.00;99.90;;;;;;5037936;28;21044;-66
2022/04/28 10:38:31;;;;;;;3.88;2.78;;;9.20;99.90;;;;;;5025669;28;20111;-68
2022/04/28 10:41:01;;;;;;;3.40;2.05;;;9.10;99.90;;;;;;5028524;28;20049;-66
2022/04/28 10:43:34;;;;;;;3.75;2.22;;;9.20;99.90;;;;;;5027363;28;20072;-66
2022/04/28 10:46:06;;;;;;;2.10;1.77;;;9.10;99.90;;;;;;5028299;28;20683;-67
2022/04/28 10:48:43;;;;;;;4.32;1.67;;;9.10;99.90;;;;;;5028168;28;20052;-67
2022/04/28 10:51:19;;;;;;;3.28;2.20;;;9.30;99.90;;;;;;5029689;28;20060;-68
2022/04/28 10:54:05;;;;;;;2.85;2.00;;;9.40;99.90;;;;;;5042891;28;20163;-66
2022/04/28 10:56:44;;;;;;;1.80;1.67;;;9.50;99.90;;;;;;5027623;28;20751;-65
2022/04/28 10:59:27;;;;;;;2.97;1.70;;;9.60;99.90;;;;;;5027037;28;20298;-70
2022/04/28 11:02:09;;;;;;;2.60;1.25;;;9.70;99.90;;;;;;5028493;28;21321;-66
2022/04/28 11:04:42;;;;;;;8.07;3.35;;;9.70;99.90;;;;;;5008123;28;21381;-67
2022/04/28 11:07:16;;;;;;;5.85;2.22;;;9.60;99.90;;;;;;5028222;28;20167;-69
2022/04/28 11:09:45;;;;;;;6.68;2.33;;;9.60;99.90;;;;;;5025467;28;20087;-70
2022/04/28 11:12:19;;;;;;;2.80;1.75;;;9.70;99.90;;;;;;5017346;28;20414;-74
2022/04/28 11:14:47;;;;;;;2.72;1.90;;;9.80;99.90;;;;;;5031331;28;20128;-69
2022/04/28 11:17:16;;;;;;;4.03;2.60;;;9.90;99.90;;;;;;5031253;28;20049;-70
2022/04/28 11:19:44;;;;;;;4.57;1.60;;;10.00;99.90;;;;;;5027739;28;20052;-67
2022/04/28 11:22:11;;;;;;;2.45;1.00;;;10.00;99.90;;;;;;5028068;28;20049;-68
2022/04/28 11:24:42;;;;;;;4.00;2.05;;;10.00;99.90;;;;;;5030639;28;20163;-66
2022/04/28 11:27:30;;;;;;;3.60;1.70;;;10.10;99.90;;;;;;5029523;28;20067;-68
2022/04/28 11:30:14;;;;;;;2.05;1.52;;;10.20;99.90;;;;;;5041384;28;20183;-70
2022/04/28 11:32:51;;;;;;;4.20;1.67;;;10.30;99.90;;;;;;5028918;28;20057;-68
2022/04/28 11:35:20;;;;;;;1.73;1.60;;;10.60;99.90;;;;;;5031191;28;20160;-70
2022/04/28 11:37:53;;;;;;;2.75;1.52;;;10.70;99.90;;;;;;5019661;28;20580;-69
2022/04/28 11:40:23;;;;;;;17.48;3.83;;;10.70;99.90;;;;;;5022149;28;20528;-68
2022/04/28 11:43:03;;;;;;;3.22;2.03;;;10.60;99.90;;;;;;5025128;28;20927;-65
2022/04/28 11:45:31;;;;;;;2.17;1.58;;;10.70;99.90;;;;;;5024324;28;20154;-67
2022/04/28 11:48:00;;;;;;;2.67;1.35;;;10.90;99.90;;;;;;5025755;28;20086;-66
2022/04/28 11:50:30;;;;;;;6.70;1.50;;;11.00;99.90;;;;;;5024777;28;20453;-68
2022/04/28 11:53:05;;;;;;;1.17;1.08;;;11.10;99.90;;;;;;5026788;28;20060;-70
2022/04/28 11:55:35;;;;;;;2.80;1.80;;;11.20;99.90;;;;;;5027267;28;20064;-67
2022/04/28 11:58:03;;;;;;;6.55;1.50;;;10.80;99.90;;;;;;5027453;28;20049;-71
2022/04/28 12:00:41;;;;;;;1.65;1.55;;;10.70;99.90;;;;;;5026882;28;20160;-69
2022/04/28 12:03:08;;;;;;;3.15;0.95;;;10.70;99.90;;;;;;5029741;28;20060;-67
2022/04/28 12:05:36;;;;;;;2.67;1.42;;;10.80;99.90;;;;;;5028244;28;20172;-66
2022/04/28 12:08:04;;;;;;;2.72;1.50;;;10.90;99.90;;;;;;5028654;28;20142;-68
2022/04/28 12:16:17;;;;;;;2.47;1.40;;;10.90;99.90;;;;;;5026246;28;20073;-68
2022/04/28 12:21:37;;;;;;;3.15;1.58;;;11.00;99.90;;;;;;5027794;28;20041;-69
2022/04/28 12:24:15;;;;;;;1.38;1.00;;;11.00;99.90;;;;;;5019939;28;20122;-66
2022/04/28 12:26:44;;;;;;;4.63;1.70;;;11.10;99.90;;;;;;5026365;28;20143;-69
2022/04/28 12:29:13;;;;;;;1.42;0.90;;;11.30;99.90;;;;;;5023623;28;20135;-69
2022/04/28 12:31:41;;;;;;;0.90;0.70;;;11.60;99.90;;;;;;5026685;28;20059;-67
2022/04/28 12:34:22;;;;;;;3.08;1.05;;;11.80;99.90;;;;;;5025179;28;20041;-70
2022/04/28 12:36:58;;;;;;;2.50;1.50;;;11.90;99.90;;;;;;5028940;28;20073;-67
2022/04/28 12:39:30;;;;;;;1.90;0.88;;;12.10;99.90;;;;;;5028105;28;20064;-69
2022/04/28 12:41:57;;;;;;;1.77;0.70;;;12.20;99.90;;;;;;5022608;28;20226;-65
2022/04/28 12:44:24;;;;;;;4.63;1.23;;;12.20;99.90;;;;;;5023101;28;20045;-67
2022/04/28 12:46:55;;;;;;;2.40;1.20;;;12.40;99.90;;;;;;5024724;28;20040;-70
2022/04/28 12:49:23;;;;;;;3.42;1.13;;;12.50;99.90;;;;;;5026600;28;20222;-65
2022/04/28 12:51:56;;;;;;;5.68;1.48;;;12.60;99.90;;;;;;5019585;28;20049;-65
2022/04/28 12:54:25;;;;;;;3.70;1.30;;;12.70;99.90;;;;;;5024104;28;20143;-68
2022/04/28 12:56:54;;;;;;;;;;;12.70;99.90;;;;;;5023144;28;20045;-66
2022/04/28 12:59:21;;;;;;;1.55;0.98;;;12.50;99.90;;;;;;5022499;28;19929;-67
2022/04/28 13:01:49;;;;;;;1.75;0.65;;;12.50;99.10;;;;;;5025365;28;20052;-68
2022/04/28 13:04:24;;;;;;;1.92;0.88;;;12.50;99.90;;;;;;5024040;28;20041;-68
2022/04/28 13:06:51;;;;;;;1.95;1.35;;;12.70;99.90;;;;;;5024649;28;20094;-68
2022/04/28 13:09:19;;;;;;;2.60;1.05;;;12.90;99.90;;;;;;5021026;28;20135;-67
2022/04/28 13:11:48;;;;;;;3.20;0.98;;;12.90;99.90;;;;;;5040026;28;20056;-65
2022/04/28 13:14:18;;;;;;;1.80;1.63;;;13.00;99.50;;;;;;5024292;28;20055;-64
2022/04/28 13:16:46;;;;;;;4.25;1.90;;;12.80;99.90;;;;;;5027321;28;20623;-68
2022/04/28 13:19:16;;;;;;;2.30;1.13;;;12.90;99.90;;;;;;5025157;28;20051;-67
2022/04/28 13:21:43;;;;;;;2.08;1.45;;;12.90;99.90;;;;;;5026705;28;20045;-68
2022/04/28 13:24:09;;;;;;;2.30;1.33;;;13.10;99.90;;;;;;5020069;28;20047;-66
2022/04/28 13:26:37;;;;;;;3.28;1.30;;;13.20;99.40;;;;;;5024728;28;20791;-69
2022/04/28 13:29:06;;;;;;;2.35;1.02;;;12.90;99.90;;;;;;5019448;28;20053;-66
2022/04/28 13:31:33;;;;;;;2.75;1.33;;;13.10;99.90;;;;;;5019884;28;20609;-66
2022/04/28 13:34:00;;;;;;;2.53;0.93;;;13.10;99.90;;;;;;5026697;28;20063;-70
2022/04/28 13:36:27;;;;;;;2.33;1.17;;;13.30;99.20;;;;;;5028041;28;20063;-68
2022/04/28 13:38:54;;;;;;;2.40;1.42;;;13.10;99.30;;;;;;5031419;28;20876;-67
2022/04/28 13:41:27;;;;;;;1.48;1.27;;;13.30;99.40;;;;;;5030794;28;20055;-68
2022/04/28 13:43:54;;;;;;;1.58;0.95;;;13.40;98.50;;;;;;5028609;28;20055;-66
2022/04/28 13:46:21;;;;;;;4.57;1.42;;;13.10;97.60;;;;;;5027984;28;20136;-63
2022/04/28 13:48:48;;;;;;;1.63;1.42;;;13.00;98.70;;;;;;5025968;28;20144;-68
2022/04/28 13:51:15;;;;;;;5.40;2.05;;;13.10;99.40;;;;;;5026869;28;20659;-67
2022/04/28 13:53:43;;;;;;;7.35;2.08;;;13.60;98.70;;;;;;5027904;28;20213;-69
2022/04/28 13:56:10;;;;;;;1.63;1.50;;;13.80;98.40;;;;;;5023740;28;20053;-67
2022/04/28 13:58:38;;;;;;;4.82;1.13;;;13.80;98.20;;;;;;5023706;28;20052;-69
2022/04/28 14:01:05;;;;;;;3.05;1.58;;;13.70;98.50;;;;;;5026461;28;20057;-68
2022/04/28 14:03:34;;;;;;;4.13;1.23;;;13.60;98.40;;;;;;5022343;28;20043;-69
2022/04/28 14:06:03;;;;;;;2.10;0.85;;;13.60;98.30;;;;;;5026556;28;21086;-66
2022/04/28 14:08:30;;;;;;;2.13;1.20;;;13.30;99.20;;;;;;5022521;28;20041;-66